sensor_id;sensor_type;location;lat;lon;timestamp;P1;durP1;ratioP1;P2;durP2;ratioP2
3704;SDS011;1868;48.918;9.438;2024-02-15T00:02:02;2.20;;;1.90;;
3704;SDS011;1868;48.918;9.438;2024-02-15T00:04:31;1.33;;;1.30;;
3704;SDS011;1868;48.918;9.438;2024-02-15T00:07:01;1.47;;;1.37;;
3704;SDS011;1868;48.918;9.438;2024-02-15T00:09:32;3.23;;;2.20;;
3704;SDS011;1868;48.918;9.438;2024-02-15T00:12:01;3.37;;;2.50;;
3704;SDS011;1868;48.918;9.438;2024-02-15T00:14:33;4.00;;;2.03;;
3704;SDS011;1868;48.918;9.438;2024-02-15T00:17:05;6.10;;;2.20;;
3704;SDS011;1868;48.918;9.438;2024-02-15T00:19:33;2.40;;;2.00;;
3704;SDS011;1868;48.918;9.438;2024-02-15T00:22:03;5.70;;;2.80;;
3704;SDS011;1868;48.918;9.438;2024-02-15T00:24:32;4.50;;;3.53;;
3704;SDS011;1868;48.918;9.438;2024-02-15T00:27:02;5.33;;;3.63;;
3704;SDS011;1868;48.918;9.438;2024-02-15T00:29:34;5.60;;;3.60;;
3704;SDS011;1868;48.918;9.438;2024-02-15T00:32:03;3.60;;;3.20;;
3704;SDS011;1868;48.918;9.438;2024-02-15T00:34:33;4.30;;;3.90;;
3704;SDS011;1868;48.918;9.438;2024-02-15T00:37:03;5.73;;;4.23;;
3704;SDS011;1868;48.918;9.438;2024-02-15T00:39:33;5.03;;;4.00;;
3704;SDS011;1868;48.918;9.438;2024-02-15T00:42:02;6.00;;;4.07;;
3704;SDS011;1868;48.918;9.438;2024-02-15T00:44:34;7.23;;;3.90;;
3704;SDS011;1868;48.918;9.438;2024-02-15T00:47:05;9.70;;;3.70;;
3704;SDS011;1868;48.918;9.438;2024-02-15T00:49:34;4.93;;;3.83;;
3704;SDS011;1868;48.918;9.438;2024-02-15T00:52:05;5.90;;;4.30;;
3704;SDS011;1868;48.918;9.438;2024-02-15T00:54:33;5.27;;;3.80;;
3704;SDS011;1868;48.918;9.438;2024-02-15T00:57:03;5.20;;;4.70;;
3704;SDS011;1868;48.918;9.438;2024-02-15T00:59:34;4.33;;;3.93;;
3704;SDS011;1868;48.918;9.438;2024-02-15T01:02:03;4.60;;;3.93;;
3704;SDS011;1868;48.918;9.438;2024-02-15T01:04:33;5.13;;;3.77;;
3704;SDS011;1868;48.918;9.438;2024-02-15T01:07:05;4.33;;;3.90;;
3704;SDS011;1868;48.918;9.438;2024-02-15T01:09:34;7.80;;;5.23;;
3704;SDS011;1868;48.918;9.438;2024-02-15T01:12:03;7.40;;;4.80;;
3704;SDS011;1868;48.918;9.438;2024-02-15T01:14:36;4.20;;;3.80;;
3704;SDS011;1868;48.918;9.438;2024-02-15T01:17:06;6.63;;;4.90;;
3704;SDS011;1868;48.918;9.438;2024-02-15T01:19:36;4.93;;;4.20;;
3704;SDS011;1868;48.918;9.438;2024-02-15T01:22:04;6.93;;;4.67;;
3704;SDS011;1868;48.918;9.438;2024-02-15T01:24:34;9.00;;;5.20;;
3704;SDS011;1868;48.918;9.438;2024-02-15T01:27:03;5.50;;;3.80;;
3704;SDS011;1868;48.918;9.438;2024-02-15T01:29:35;4.73;;;4.00;;
3704;SDS011;1868;48.918;9.438;2024-02-15T01:32:05;5.30;;;4.17;;
3704;SDS011;1868;48.918;9.438;2024-02-15T01:34:34;3.70;;;3.37;;
3704;SDS011;1868;48.918;9.438;2024-02-15T01:37:04;4.20;;;3.70;;
3704;SDS011;1868;48.918;9.438;2024-02-15T01:39:33;4.00;;;3.53;;
3704;SDS011;1868;48.918;9.438;2024-02-15T01:42:02;4.40;;;4.00;;
3704;SDS011;1868;48.918;9.438;2024-02-15T01:44:31;5.40;;;4.03;;
3704;SDS011;1868;48.918;9.438;2024-02-15T01:47:02;4.40;;;3.93;;
3704;SDS011;1868;48.918;9.438;2024-02-15T01:49:31;5.17;;;3.37;;
3704;SDS011;1868;48.918;9.438;2024-02-15T01:52:01;5.60;;;3.70;;
3704;SDS011;1868;48.918;9.438;2024-02-15T01:54:33;5.47;;;3.13;;
3704;SDS011;1868;48.918;9.438;2024-02-15T01:57:06;4.33;;;3.30;;
3704;SDS011;1868;48.918;9.438;2024-02-15T01:59:35;4.10;;;3.73;;
3704;SDS011;1868;48.918;9.438;2024-02-15T02:02:08;4.23;;;3.33;;
3704;SDS011;1868;48.918;9.438;2024-02-15T02:04:40;3.43;;;3.13;;
3704;SDS011;1868;48.918;9.438;2024-02-15T02:07:09;8.63;;;4.00;;
3704;SDS011;1868;48.918;9.438;2024-02-15T02:09:41;4.87;;;3.60;;
3704;SDS011;1868;48.918;9.438;2024-02-15T02:12:12;5.63;;;3.83;;
3704;SDS011;1868;48.918;9.438;2024-02-15T02:14:44;4.47;;;3.83;;
3704;SDS011;1868;48.918;9.438;2024-02-15T02:17:14;6.70;;;4.10;;
3704;SDS011;1868;48.918;9.438;2024-02-15T02:19:43;3.10;;;2.90;;
3704;SDS011;1868;48.918;9.438;2024-02-15T02:22:12;8.57;;;3.73;;
3704;SDS011;1868;48.918;9.438;2024-02-15T02:24:44;4.70;;;3.90;;
3704;SDS011;1868;48.918;9.438;2024-02-15T02:27:29;4.10;;;3.70;;
3704;SDS011;1868;48.918;9.438;2024-02-15T02:30:03;4.50;;;3.47;;
3704;SDS011;1868;48.918;9.438;2024-02-15T02:32:37;6.90;;;4.33;;
3704;SDS011;1868;48.918;9.438;2024-02-15T02:35:13;9.10;;;4.67;;
3704;SDS011;1868;48.918;9.438;2024-02-15T02:37:42;6.37;;;4.30;;
3704;SDS011;1868;48.918;9.438;2024-02-15T02:40:13;5.47;;;3.97;;
3704;SDS011;1868;48.918;9.438;2024-02-15T02:42:48;4.63;;;3.67;;
3704;SDS011;1868;48.918;9.438;2024-02-15T02:45:18;5.57;;;4.20;;
3704;SDS011;1868;48.918;9.438;2024-02-15T02:47:50;5.63;;;4.47;;
3704;SDS011;1868;48.918;9.438;2024-02-15T02:50:20;5.90;;;4.30;;
3704;SDS011;1868;48.918;9.438;2024-02-15T02:52:51;5.80;;;4.20;;
3704;SDS011;1868;48.918;9.438;2024-02-15T02:55:22;8.23;;;4.57;;
3704;SDS011;1868;48.918;9.438;2024-02-15T02:57:50;5.07;;;4.57;;
3704;SDS011;1868;48.918;9.438;2024-02-15T03:00:19;4.20;;;3.37;;
3704;SDS011;1868;48.918;9.438;2024-02-15T03:02:49;5.73;;;3.77;;
3704;SDS011;1868;48.918;9.438;2024-02-15T03:05:24;6.60;;;4.60;;
3704;SDS011;1868;48.918;9.438;2024-02-15T03:07:53;6.33;;;3.30;;
3704;SDS011;1868;48.918;9.438;2024-02-15T03:10:25;6.27;;;3.70;;
3704;SDS011;1868;48.918;9.438;2024-02-15T03:12:54;3.77;;;3.30;;
3704;SDS011;1868;48.918;9.438;2024-02-15T03:15:24;5.03;;;3.57;;
3704;SDS011;1868;48.918;9.438;2024-02-15T03:17:53;4.37;;;3.97;;
3704;SDS011;1868;48.918;9.438;2024-02-15T03:20:27;3.33;;;3.03;;
3704;SDS011;1868;48.918;9.438;2024-02-15T03:22:57;3.40;;;3.10;;
3704;SDS011;1868;48.918;9.438;2024-02-15T03:25:29;4.93;;;4.07;;
3704;SDS011;1868;48.918;9.438;2024-02-15T03:27:59;5.10;;;3.60;;
3704;SDS011;1868;48.918;9.438;2024-02-15T03:30:30;3.73;;;3.10;;
3704;SDS011;1868;48.918;9.438;2024-02-15T03:33:02;5.20;;;3.63;;
3704;SDS011;1868;48.918;9.438;2024-02-15T03:35:34;4.00;;;3.40;;
3704;SDS011;1868;48.918;9.438;2024-02-15T03:38:04;5.13;;;3.50;;
3704;SDS011;1868;48.918;9.438;2024-02-15T03:40:36;7.60;;;3.90;;
3704;SDS011;1868;48.918;9.438;2024-02-15T03:43:07;4.37;;;3.30;;
3704;SDS011;1868;48.918;9.438;2024-02-15T03:45:37;5.60;;;3.20;;
3704;SDS011;1868;48.918;9.438;2024-02-15T03:48:07;4.30;;;3.43;;
3704;SDS011;1868;48.918;9.438;2024-02-15T03:50:37;2.87;;;2.47;;
3704;SDS011;1868;48.918;9.438;2024-02-15T03:53:07;4.10;;;3.17;;
3704;SDS011;1868;48.918;9.438;2024-02-15T03:55:39;3.93;;;3.30;;
3704;SDS011;1868;48.918;9.438;2024-02-15T03:58:08;3.20;;;2.63;;
3704;SDS011;1868;48.918;9.438;2024-02-15T04:00:37;2.37;;;2.17;;
3704;SDS011;1868;48.918;9.438;2024-02-15T04:03:07;8.67;;;3.20;;
3704;SDS011;1868;48.918;9.438;2024-02-15T04:05:37;4.40;;;2.50;;
3704;SDS011;1868;48.918;9.438;2024-02-15T04:08:07;6.10;;;2.93;;
3704;SDS011;1868;48.918;9.438;2024-02-15T04:10:40;3.57;;;2.77;;
3704;SDS011;1868;48.918;9.438;2024-02-15T04:13:09;2.67;;;2.43;;
3704;SDS011;1868;48.918;9.438;2024-02-15T04:15:38;3.53;;;2.87;;
3704;SDS011;1868;48.918;9.438;2024-02-15T04:18:08;2.23;;;2.10;;
3704;SDS011;1868;48.918;9.438;2024-02-15T04:20:39;2.87;;;2.67;;
3704;SDS011;1868;48.918;9.438;2024-02-15T04:23:11;3.07;;;2.77;;
3704;SDS011;1868;48.918;9.438;2024-02-15T04:25:42;2.30;;;2.10;;
3704;SDS011;1868;48.918;9.438;2024-02-15T04:28:17;3.97;;;2.80;;
3704;SDS011;1868;48.918;9.438;2024-02-15T04:30:46;4.73;;;2.63;;
3704;SDS011;1868;48.918;9.438;2024-02-15T04:33:17;3.10;;;2.80;;
3704;SDS011;1868;48.918;9.438;2024-02-15T04:35:49;7.17;;;2.80;;
3704;SDS011;1868;48.918;9.438;2024-02-15T04:38:18;6.13;;;3.83;;
3704;SDS011;1868;48.918;9.438;2024-02-15T04:40:49;3.93;;;3.30;;
3704;SDS011;1868;48.918;9.438;2024-02-15T04:43:17;2.70;;;2.50;;
3704;SDS011;1868;48.918;9.438;2024-02-15T04:45:48;3.43;;;2.60;;
3704;SDS011;1868;48.918;9.438;2024-02-15T04:48:20;5.60;;;2.73;;
3704;SDS011;1868;48.918;9.438;2024-02-15T04:50:51;3.50;;;2.63;;
3704;SDS011;1868;48.918;9.438;2024-02-15T04:53:21;2.60;;;2.40;;
3704;SDS011;1868;48.918;9.438;2024-02-15T04:55:51;2.90;;;2.70;;
3704;SDS011;1868;48.918;9.438;2024-02-15T04:58:21;4.73;;;2.87;;
3704;SDS011;1868;48.918;9.438;2024-02-15T05:00:51;3.93;;;2.93;;
3704;SDS011;1868;48.918;9.438;2024-02-15T05:03:25;3.70;;;2.27;;
3704;SDS011;1868;48.918;9.438;2024-02-15T05:05:55;3.30;;;2.63;;
3704;SDS011;1868;48.918;9.438;2024-02-15T05:08:24;2.67;;;2.47;;
3704;SDS011;1868;48.918;9.438;2024-02-15T05:10:54;2.47;;;2.27;;
3704;SDS011;1868;48.918;9.438;2024-02-15T05:13:24;5.87;;;4.03;;
3704;SDS011;1868;48.918;9.438;2024-02-15T05:15:53;2.73;;;2.53;;
3704;SDS011;1868;48.918;9.438;2024-02-15T05:18:22;4.73;;;3.07;;
3704;SDS011;1868;48.918;9.438;2024-02-15T05:20:51;3.23;;;2.83;;
3704;SDS011;1868;48.918;9.438;2024-02-15T05:23:20;3.50;;;2.87;;
3704;SDS011;1868;48.918;9.438;2024-02-15T05:25:50;3.50;;;3.20;;
3704;SDS011;1868;48.918;9.438;2024-02-15T05:28:22;2.60;;;2.40;;
3704;SDS011;1868;48.918;9.438;2024-02-15T05:31:08;3.20;;;2.90;;
3704;SDS011;1868;48.918;9.438;2024-02-15T05:33:41;4.60;;;3.30;;
3704;SDS011;1868;48.918;9.438;2024-02-15T05:36:10;3.70;;;3.40;;
3704;SDS011;1868;48.918;9.438;2024-02-15T05:38:40;4.97;;;3.30;;
3704;SDS011;1868;48.918;9.438;2024-02-15T05:41:13;4.33;;;3.37;;
3704;SDS011;1868;48.918;9.438;2024-02-15T05:43:44;2.57;;;2.37;;
3704;SDS011;1868;48.918;9.438;2024-02-15T05:46:14;2.90;;;2.67;;
3704;SDS011;1868;48.918;9.438;2024-02-15T05:48:44;7.70;;;3.40;;
3704;SDS011;1868;48.918;9.438;2024-02-15T05:51:15;5.47;;;3.87;;
3704;SDS011;1868;48.918;9.438;2024-02-15T05:53:49;5.17;;;3.43;;
3704;SDS011;1868;48.918;9.438;2024-02-15T05:56:20;6.27;;;3.07;;
3704;SDS011;1868;48.918;9.438;2024-02-15T05:58:52;3.40;;;2.93;;
3704;SDS011;1868;48.918;9.438;2024-02-15T06:01:23;2.83;;;2.63;;
3704;SDS011;1868;48.918;9.438;2024-02-15T06:03:53;6.90;;;3.47;;
3704;SDS011;1868;48.918;9.438;2024-02-15T06:06:23;3.90;;;2.83;;
3704;SDS011;1868;48.918;9.438;2024-02-15T06:08:56;3.03;;;2.83;;
3704;SDS011;1868;48.918;9.438;2024-02-15T06:11:27;4.47;;;2.83;;
3704;SDS011;1868;48.918;9.438;2024-02-15T06:13:58;3.60;;;3.30;;
3704;SDS011;1868;48.918;9.438;2024-02-15T06:16:26;6.40;;;3.70;;
3704;SDS011;1868;48.918;9.438;2024-02-15T06:18:57;39.10;;;24.00;;
3704;SDS011;1868;48.918;9.438;2024-02-15T06:21:30;24.27;;;15.57;;
3704;SDS011;1868;48.918;9.438;2024-02-15T06:24:01;6.83;;;4.10;;
3704;SDS011;1868;48.918;9.438;2024-02-15T06:26:30;4.93;;;3.00;;
3704;SDS011;1868;48.918;9.438;2024-02-15T06:29:01;5.53;;;2.80;;
3704;SDS011;1868;48.918;9.438;2024-02-15T06:31:48;3.00;;;2.40;;
3704;SDS011;1868;48.918;9.438;2024-02-15T06:34:35;3.23;;;2.53;;
3704;SDS011;1868;48.918;9.438;2024-02-15T06:37:35;3.60;;;3.00;;
3704;SDS011;1868;48.918;9.438;2024-02-15T06:40:22;2.80;;;2.23;;
3704;SDS011;1868;48.918;9.438;2024-02-15T06:42:51;6.87;;;2.53;;
3704;SDS011;1868;48.918;9.438;2024-02-15T06:45:21;10.33;;;3.47;;
3704;SDS011;1868;48.918;9.438;2024-02-15T06:47:51;9.83;;;4.00;;
3704;SDS011;1868;48.918;9.438;2024-02-15T06:50:20;9.17;;;5.53;;
3704;SDS011;1868;48.918;9.438;2024-02-15T06:52:49;11.70;;;8.03;;
3704;SDS011;1868;48.918;9.438;2024-02-15T06:55:18;8.83;;;6.60;;
3704;SDS011;1868;48.918;9.438;2024-02-15T06:57:48;8.23;;;6.13;;
3704;SDS011;1868;48.918;9.438;2024-02-15T07:00:17;8.37;;;5.50;;
3704;SDS011;1868;48.918;9.438;2024-02-15T07:02:47;4.10;;;3.70;;
3704;SDS011;1868;48.918;9.438;2024-02-15T07:05:17;5.53;;;4.53;;
3704;SDS011;1868;48.918;9.438;2024-02-15T07:07:46;4.20;;;3.37;;
3704;SDS011;1868;48.918;9.438;2024-02-15T07:10:14;3.50;;;3.20;;
3704;SDS011;1868;48.918;9.438;2024-02-15T07:12:44;4.30;;;3.23;;
3704;SDS011;1868;48.918;9.438;2024-02-15T07:15:13;6.33;;;3.10;;
3704;SDS011;1868;48.918;9.438;2024-02-15T07:17:47;3.13;;;2.77;;
3704;SDS011;1868;48.918;9.438;2024-02-15T07:20:21;3.07;;;2.77;;
3704;SDS011;1868;48.918;9.438;2024-02-15T07:22:51;4.23;;;2.80;;
3704;SDS011;1868;48.918;9.438;2024-02-15T07:25:20;4.50;;;2.43;;
3704;SDS011;1868;48.918;9.438;2024-02-15T07:27:49;4.90;;;3.03;;
3704;SDS011;1868;48.918;9.438;2024-02-15T07:30:20;3.13;;;2.53;;
3704;SDS011;1868;48.918;9.438;2024-02-15T07:32:53;2.63;;;2.40;;
3704;SDS011;1868;48.918;9.438;2024-02-15T07:35:22;3.67;;;2.70;;
3704;SDS011;1868;48.918;9.438;2024-02-15T07:37:52;7.93;;;2.97;;
3704;SDS011;1868;48.918;9.438;2024-02-15T07:40:24;3.07;;;2.20;;
3704;SDS011;1868;48.918;9.438;2024-02-15T07:42:56;3.97;;;2.13;;
3704;SDS011;1868;48.918;9.438;2024-02-15T07:45:27;3.70;;;2.20;;
3704;SDS011;1868;48.918;9.438;2024-02-15T07:48:00;4.30;;;2.10;;
3704;SDS011;1868;48.918;9.438;2024-02-15T07:50:31;4.30;;;2.37;;
3704;SDS011;1868;48.918;9.438;2024-02-15T07:53:00;2.90;;;2.40;;
3704;SDS011;1868;48.918;9.438;2024-02-15T07:55:29;4.27;;;1.90;;
3704;SDS011;1868;48.918;9.438;2024-02-15T07:57:58;8.33;;;2.70;;
3704;SDS011;1868;48.918;9.438;2024-02-15T08:00:30;6.73;;;2.10;;
3704;SDS011;1868;48.918;9.438;2024-02-15T08:03:01;4.10;;;1.97;;
3704;SDS011;1868;48.918;9.438;2024-02-15T08:05:32;4.93;;;2.10;;
3704;SDS011;1868;48.918;9.438;2024-02-15T08:08:03;2.87;;;2.03;;
3704;SDS011;1868;48.918;9.438;2024-02-15T08:10:33;3.20;;;1.90;;
3704;SDS011;1868;48.918;9.438;2024-02-15T08:13:01;3.33;;;2.03;;
3704;SDS011;1868;48.918;9.438;2024-02-15T08:15:31;5.17;;;1.40;;
3704;SDS011;1868;48.918;9.438;2024-02-15T08:18:02;2.30;;;1.70;;
3704;SDS011;1868;48.918;9.438;2024-02-15T08:20:35;3.83;;;1.77;;
3704;SDS011;1868;48.918;9.438;2024-02-15T08:23:06;1.00;;;0.77;;
3704;SDS011;1868;48.918;9.438;2024-02-15T08:25:38;2.63;;;1.10;;
3704;SDS011;1868;48.918;9.438;2024-02-15T08:28:08;1.40;;;1.30;;
3704;SDS011;1868;48.918;9.438;2024-02-15T08:30:37;4.20;;;1.30;;
3704;SDS011;1868;48.918;9.438;2024-02-15T08:33:09;1.17;;;0.97;;
3704;SDS011;1868;48.918;9.438;2024-02-15T08:35:38;1.80;;;0.63;;
3704;SDS011;1868;48.918;9.438;2024-02-15T08:38:08;1.40;;;1.07;;
3704;SDS011;1868;48.918;9.438;2024-02-15T08:40:36;1.70;;;0.90;;
3704;SDS011;1868;48.918;9.438;2024-02-15T08:43:07;2.40;;;1.00;;
3704;SDS011;1868;48.918;9.438;2024-02-15T08:45:35;2.37;;;0.80;;
3704;SDS011;1868;48.918;9.438;2024-02-15T08:48:04;4.50;;;1.10;;
3704;SDS011;1868;48.918;9.438;2024-02-15T08:50:35;3.83;;;1.27;;
3704;SDS011;1868;48.918;9.438;2024-02-15T08:53:04;1.67;;;0.93;;
3704;SDS011;1868;48.918;9.438;2024-02-15T08:55:33;2.20;;;0.90;;
3704;SDS011;1868;48.918;9.438;2024-02-15T08:58:04;1.00;;;0.90;;
3704;SDS011;1868;48.918;9.438;2024-02-15T09:00:36;1.27;;;1.00;;
3704;SDS011;1868;48.918;9.438;2024-02-15T09:03:10;1.57;;;1.03;;
3704;SDS011;1868;48.918;9.438;2024-02-15T09:05:41;3.70;;;1.40;;
3704;SDS011;1868;48.918;9.438;2024-02-15T09:08:10;1.17;;;0.93;;
3704;SDS011;1868;48.918;9.438;2024-02-15T09:10:38;1.57;;;1.27;;
3704;SDS011;1868;48.918;9.438;2024-02-15T09:13:07;2.70;;;1.00;;
3704;SDS011;1868;48.918;9.438;2024-02-15T09:15:36;3.07;;;0.97;;
3704;SDS011;1868;48.918;9.438;2024-02-15T09:18:05;3.60;;;1.47;;
3704;SDS011;1868;48.918;9.438;2024-02-15T09:20:36;1.80;;;0.93;;
3704;SDS011;1868;48.918;9.438;2024-02-15T09:23:12;1.70;;;1.20;;
3704;SDS011;1868;48.918;9.438;2024-02-15T09:25:41;1.17;;;1.03;;
3704;SDS011;1868;48.918;9.438;2024-02-15T09:28:13;2.00;;;1.10;;
3704;SDS011;1868;48.918;9.438;2024-02-15T09:30:41;1.33;;;1.20;;
3704;SDS011;1868;48.918;9.438;2024-02-15T09:33:13;1.80;;;1.00;;
3704;SDS011;1868;48.918;9.438;2024-02-15T09:35:43;1.40;;;0.87;;
3704;SDS011;1868;48.918;9.438;2024-02-15T09:38:14;2.70;;;1.20;;
3704;SDS011;1868;48.918;9.438;2024-02-15T09:40:48;1.90;;;0.93;;
3704;SDS011;1868;48.918;9.438;2024-02-15T09:43:17;1.80;;;1.03;;
3704;SDS011;1868;48.918;9.438;2024-02-15T09:45:47;1.93;;;1.20;;
3704;SDS011;1868;48.918;9.438;2024-02-15T09:48:16;2.07;;;1.30;;
3704;SDS011;1868;48.918;9.438;2024-02-15T09:50:49;1.47;;;1.10;;
3704;SDS011;1868;48.918;9.438;2024-02-15T09:53:23;1.13;;;0.80;;
3704;SDS011;1868;48.918;9.438;2024-02-15T09:55:53;1.13;;;0.70;;
3704;SDS011;1868;48.918;9.438;2024-02-15T09:58:22;1.90;;;1.17;;
3704;SDS011;1868;48.918;9.438;2024-02-15T10:00:51;2.53;;;1.03;;
3704;SDS011;1868;48.918;9.438;2024-02-15T10:03:21;2.20;;;1.10;;
3704;SDS011;1868;48.918;9.438;2024-02-15T10:05:55;1.00;;;1.00;;
3704;SDS011;1868;48.918;9.438;2024-02-15T10:08:25;1.77;;;0.90;;
3704;SDS011;1868;48.918;9.438;2024-02-15T10:11:06;1.27;;;1.03;;
3704;SDS011;1868;48.918;9.438;2024-02-15T10:13:37;1.77;;;1.00;;
3704;SDS011;1868;48.918;9.438;2024-02-15T10:16:15;1.83;;;0.90;;
3704;SDS011;1868;48.918;9.438;2024-02-15T10:18:45;1.13;;;0.70;;
3704;SDS011;1868;48.918;9.438;2024-02-15T10:21:23;0.80;;;0.70;;
3704;SDS011;1868;48.918;9.438;2024-02-15T10:24:06;1.80;;;0.70;;
3704;SDS011;1868;48.918;9.438;2024-02-15T10:26:36;0.97;;;0.93;;
3704;SDS011;1868;48.918;9.438;2024-02-15T10:29:05;1.50;;;0.90;;
3704;SDS011;1868;48.918;9.438;2024-02-15T10:31:37;2.17;;;1.30;;
3704;SDS011;1868;48.918;9.438;2024-02-15T10:34:08;1.97;;;0.90;;
3704;SDS011;1868;48.918;9.438;2024-02-15T10:36:39;2.10;;;0.87;;
3704;SDS011;1868;48.918;9.438;2024-02-15T10:39:13;2.90;;;0.93;;
3704;SDS011;1868;48.918;9.438;2024-02-15T10:41:49;0.80;;;0.80;;
3704;SDS011;1868;48.918;9.438;2024-02-15T10:44:20;4.00;;;1.17;;
3704;SDS011;1868;48.918;9.438;2024-02-15T10:46:53;1.00;;;0.77;;
3704;SDS011;1868;48.918;9.438;2024-02-15T10:49:23;2.20;;;1.17;;
3704;SDS011;1868;48.918;9.438;2024-02-15T10:51:55;1.87;;;0.80;;
3704;SDS011;1868;48.918;9.438;2024-02-15T10:54:46;1.77;;;0.97;;
3704;SDS011;1868;48.918;9.438;2024-02-15T10:57:21;2.10;;;0.90;;
3704;SDS011;1868;48.918;9.438;2024-02-15T10:59:53;1.73;;;0.73;;
3704;SDS011;1868;48.918;9.438;2024-02-15T11:02:32;1.90;;;1.00;;
3704;SDS011;1868;48.918;9.438;2024-02-15T11:05:08;1.10;;;1.00;;
3704;SDS011;1868;48.918;9.438;2024-02-15T11:07:38;1.37;;;1.27;;
3704;SDS011;1868;48.918;9.438;2024-02-15T11:10:09;1.43;;;0.90;;
3704;SDS011;1868;48.918;9.438;2024-02-15T11:12:43;2.03;;;0.80;;
3704;SDS011;1868;48.918;9.438;2024-02-15T11:18:12;2.87;;;0.83;;
3704;SDS011;1868;48.918;9.438;2024-02-15T11:20:49;1.80;;;0.73;;
3704;SDS011;1868;48.918;9.438;2024-02-15T11:23:26;1.57;;;0.80;;
3704;SDS011;1868;48.918;9.438;2024-02-15T11:26:05;1.03;;;0.80;;
3704;SDS011;1868;48.918;9.438;2024-02-15T11:28:45;3.97;;;1.40;;
3704;SDS011;1868;48.918;9.438;2024-02-15T11:34:42;1.90;;;0.93;;
3704;SDS011;1868;48.918;9.438;2024-02-15T11:43:47;1.40;;;0.97;;
3704;SDS011;1868;48.918;9.438;2024-02-15T11:46:25;1.40;;;0.70;;
3704;SDS011;1868;48.918;9.438;2024-02-15T11:48:57;4.67;;;1.13;;
3704;SDS011;1868;48.918;9.438;2024-02-15T11:51:28;1.63;;;0.93;;
3704;SDS011;1868;48.918;9.438;2024-02-15T11:54:05;1.97;;;0.67;;
3704;SDS011;1868;48.918;9.438;2024-02-15T11:56:48;2.17;;;0.80;;
3704;SDS011;1868;48.918;9.438;2024-02-15T11:59:42;1.30;;;0.90;;
3704;SDS011;1868;48.918;9.438;2024-02-15T12:02:31;1.30;;;1.10;;
3704;SDS011;1868;48.918;9.438;2024-02-15T12:05:18;1.40;;;0.77;;
3704;SDS011;1868;48.918;9.438;2024-02-15T12:08:06;2.03;;;0.90;;
3704;SDS011;1868;48.918;9.438;2024-02-15T12:10:58;3.77;;;1.47;;
3704;SDS011;1868;48.918;9.438;2024-02-15T12:13:49;1.00;;;0.70;;
3704;SDS011;1868;48.918;9.438;2024-02-15T12:16:37;1.60;;;0.90;;
3704;SDS011;1868;48.918;9.438;2024-02-15T12:19:24;4.37;;;1.13;;
3704;SDS011;1868;48.918;9.438;2024-02-15T12:21:54;3.80;;;1.00;;
3704;SDS011;1868;48.918;9.438;2024-02-15T12:24:25;1.37;;;1.00;;
3704;SDS011;1868;48.918;9.438;2024-02-15T12:26:59;2.33;;;0.90;;
3704;SDS011;1868;48.918;9.438;2024-02-15T12:29:30;2.33;;;0.80;;
3704;SDS011;1868;48.918;9.438;2024-02-15T12:32:00;1.63;;;1.00;;
3704;SDS011;1868;48.918;9.438;2024-02-15T12:34:31;0.97;;;0.80;;
3704;SDS011;1868;48.918;9.438;2024-02-15T12:37:07;2.30;;;1.20;;
3704;SDS011;1868;48.918;9.438;2024-02-15T12:39:36;0.97;;;0.87;;
3704;SDS011;1868;48.918;9.438;2024-02-15T12:42:06;1.13;;;0.63;;
3704;SDS011;1868;48.918;9.438;2024-02-15T12:44:36;1.03;;;0.80;;
3704;SDS011;1868;48.918;9.438;2024-02-15T12:47:21;2.07;;;0.70;;
3704;SDS011;1868;48.918;9.438;2024-02-15T12:49:51;2.53;;;1.13;;
3704;SDS011;1868;48.918;9.438;2024-02-15T12:52:35;1.83;;;0.70;;
3704;SDS011;1868;48.918;9.438;2024-02-15T12:55:07;1.30;;;0.90;;
3704;SDS011;1868;48.918;9.438;2024-02-15T12:57:38;2.40;;;0.57;;
3704;SDS011;1868;48.918;9.438;2024-02-15T13:00:12;1.37;;;0.80;;
3704;SDS011;1868;48.918;9.438;2024-02-15T13:02:47;1.30;;;0.77;;
3704;SDS011;1868;48.918;9.438;2024-02-15T13:05:18;0.93;;;0.80;;
3704;SDS011;1868;48.918;9.438;2024-02-15T13:07:48;1.73;;;1.20;;
3704;SDS011;1868;48.918;9.438;2024-02-15T13:10:18;2.03;;;1.10;;
3704;SDS011;1868;48.918;9.438;2024-02-15T13:12:48;0.63;;;0.63;;
3704;SDS011;1868;48.918;9.438;2024-02-15T13:15:20;4.30;;;0.80;;
3704;SDS011;1868;48.918;9.438;2024-02-15T13:17:55;2.83;;;0.70;;
3704;SDS011;1868;48.918;9.438;2024-02-15T13:20:26;1.07;;;0.80;;
3704;SDS011;1868;48.918;9.438;2024-02-15T13:23:00;0.93;;;0.77;;
3704;SDS011;1868;48.918;9.438;2024-02-15T13:25:37;2.70;;;0.90;;
3704;SDS011;1868;48.918;9.438;2024-02-15T13:28:11;3.43;;;0.90;;
3704;SDS011;1868;48.918;9.438;2024-02-15T13:30:40;1.10;;;0.90;;
3704;SDS011;1868;48.918;9.438;2024-02-15T13:33:13;2.30;;;1.13;;
3704;SDS011;1868;48.918;9.438;2024-02-15T13:35:44;2.40;;;1.50;;
3704;SDS011;1868;48.918;9.438;2024-02-15T13:38:14;1.00;;;0.80;;
3704;SDS011;1868;48.918;9.438;2024-02-15T13:40:51;1.03;;;0.93;;
3704;SDS011;1868;48.918;9.438;2024-02-15T13:43:22;2.17;;;1.23;;
3704;SDS011;1868;48.918;9.438;2024-02-15T13:45:51;0.50;;;0.50;;
3704;SDS011;1868;48.918;9.438;2024-02-15T13:48:25;3.20;;;1.10;;
3704;SDS011;1868;48.918;9.438;2024-02-15T13:51:01;7.20;;;1.20;;
3704;SDS011;1868;48.918;9.438;2024-02-15T13:53:30;2.13;;;0.97;;
3704;SDS011;1868;48.918;9.438;2024-02-15T13:56:00;2.03;;;1.07;;
3704;SDS011;1868;48.918;9.438;2024-02-15T13:58:32;2.13;;;1.13;;
3704;SDS011;1868;48.918;9.438;2024-02-15T14:01:01;5.93;;;1.00;;
3704;SDS011;1868;48.918;9.438;2024-02-15T14:03:32;1.70;;;0.93;;
3704;SDS011;1868;48.918;9.438;2024-02-15T14:06:02;2.90;;;0.80;;
3704;SDS011;1868;48.918;9.438;2024-02-15T14:08:33;3.63;;;1.23;;
3704;SDS011;1868;48.918;9.438;2024-02-15T14:11:04;1.13;;;1.03;;
3704;SDS011;1868;48.918;9.438;2024-02-15T14:13:33;3.50;;;1.23;;
3704;SDS011;1868;48.918;9.438;2024-02-15T14:16:02;1.40;;;0.70;;
3704;SDS011;1868;48.918;9.438;2024-02-15T14:18:36;4.47;;;1.30;;
3704;SDS011;1868;48.918;9.438;2024-02-15T14:21:05;0.83;;;0.60;;
3704;SDS011;1868;48.918;9.438;2024-02-15T14:23:37;0.97;;;0.83;;
3704;SDS011;1868;48.918;9.438;2024-02-15T14:26:08;1.90;;;1.03;;
3704;SDS011;1868;48.918;9.438;2024-02-15T14:28:37;4.93;;;1.20;;
3704;SDS011;1868;48.918;9.438;2024-02-15T14:31:10;1.20;;;1.10;;
3704;SDS011;1868;48.918;9.438;2024-02-15T14:33:59;2.70;;;1.23;;
3704;SDS011;1868;48.918;9.438;2024-02-15T14:36:28;1.83;;;1.00;;
3704;SDS011;1868;48.918;9.438;2024-02-15T14:38:57;2.87;;;0.97;;
3704;SDS011;1868;48.918;9.438;2024-02-15T14:41:28;0.70;;;0.70;;
3704;SDS011;1868;48.918;9.438;2024-02-15T14:43:59;1.40;;;0.80;;
3704;SDS011;1868;48.918;9.438;2024-02-15T14:46:28;2.87;;;1.00;;
3704;SDS011;1868;48.918;9.438;2024-02-15T14:48:57;1.07;;;0.90;;
3704;SDS011;1868;48.918;9.438;2024-02-15T14:51:28;3.33;;;0.90;;
3704;SDS011;1868;48.918;9.438;2024-02-15T14:53:58;1.83;;;0.80;;
3704;SDS011;1868;48.918;9.438;2024-02-15T14:56:27;7.93;;;1.03;;
3704;SDS011;1868;48.918;9.438;2024-02-15T14:59:04;2.90;;;1.00;;
3704;SDS011;1868;48.918;9.438;2024-02-15T15:01:32;2.93;;;0.90;;
3704;SDS011;1868;48.918;9.438;2024-02-15T15:04:03;1.70;;;0.93;;
3704;SDS011;1868;48.918;9.438;2024-02-15T15:06:33;1.03;;;0.73;;
3704;SDS011;1868;48.918;9.438;2024-02-15T15:09:32;4.17;;;0.70;;
3704;SDS011;1868;48.918;9.438;2024-02-15T15:12:20;4.27;;;1.30;;
3704;SDS011;1868;48.918;9.438;2024-02-15T15:15:06;3.07;;;1.13;;
3704;SDS011;1868;48.918;9.438;2024-02-15T15:17:39;2.73;;;1.80;;
3704;SDS011;1868;48.918;9.438;2024-02-15T15:20:12;2.33;;;1.00;;
3704;SDS011;1868;48.918;9.438;2024-02-15T15:22:43;1.87;;;1.33;;
3704;SDS011;1868;48.918;9.438;2024-02-15T15:25:12;3.10;;;1.17;;
3704;SDS011;1868;48.918;9.438;2024-02-15T15:27:41;2.40;;;1.13;;
3704;SDS011;1868;48.918;9.438;2024-02-15T15:30:12;2.33;;;0.90;;
3704;SDS011;1868;48.918;9.438;2024-02-15T15:32:43;2.87;;;1.37;;
3704;SDS011;1868;48.918;9.438;2024-02-15T15:35:14;1.30;;;1.00;;
3704;SDS011;1868;48.918;9.438;2024-02-15T15:37:45;6.30;;;1.20;;
3704;SDS011;1868;48.918;9.438;2024-02-15T15:40:17;1.47;;;1.20;;
3704;SDS011;1868;48.918;9.438;2024-02-15T15:42:49;1.20;;;0.83;;
3704;SDS011;1868;48.918;9.438;2024-02-15T15:45:18;1.40;;;0.80;;
3704;SDS011;1868;48.918;9.438;2024-02-15T15:47:48;1.90;;;1.20;;
3704;SDS011;1868;48.918;9.438;2024-02-15T15:50:19;3.90;;;1.20;;
3704;SDS011;1868;48.918;9.438;2024-02-15T15:52:48;2.50;;;1.30;;
3704;SDS011;1868;48.918;9.438;2024-02-15T15:55:21;3.83;;;1.43;;
3704;SDS011;1868;48.918;9.438;2024-02-15T15:57:50;2.53;;;1.50;;